createdAt,value
2023-04-18T00:00:17.484Z,0.0000
2023-04-18T00:01:18.111Z,0.0000
2023-04-18T00:02:19.067Z,0.0000
2023-04-18T00:03:19.312Z,0.0000
2023-04-18T00:04:21.362Z,0.0000
2023-04-18T00:05:22.206Z,0.0000
2023-04-18T00:06:23.030Z,0.0000
2023-04-18T00:07:23.928Z,0.0000
2023-04-18T00:08:24.270Z,0.0000
2023-04-18T00:09:25.142Z,0.0000
2023-04-18T00:10:25.793Z,0.0000
2023-04-18T00:11:26.466Z,0.0000
2023-04-18T00:12:27.043Z,0.0000
2023-04-18T00:13:27.632Z,0.0000
2023-04-18T00:14:27.666Z,0.0000
2023-04-18T00:15:28.487Z,0.0000
2023-04-18T00:16:29.165Z,0.0000
2023-04-18T00:17:30.044Z,0.0000
2023-04-18T00:18:30.556Z,0.0000
2023-04-18T00:19:31.077Z,0.0000
2023-04-18T00:20:31.643Z,0.0000
2023-04-18T00:21:32.175Z,0.0000
2023-04-18T00:22:32.802Z,0.0000
2023-04-18T00:23:33.779Z,0.0000
2023-04-18T00:24:34.800Z,0.0000
2023-04-18T00:25:35.404Z,0.0000
2023-04-18T00:26:36.041Z,0.0000
2023-04-18T00:27:36.436Z,0.0000
2023-04-18T00:28:37.133Z,0.0000
2023-04-18T00:29:37.516Z,0.0000
2023-04-18T00:30:38.121Z,0.0000
2023-04-18T00:31:39.318Z,0.0000
2023-04-18T00:32:39.911Z,0.0000
2023-04-18T00:33:40.637Z,0.0000
2023-04-18T00:34:41.214Z,0.0000
2023-04-18T00:35:41.699Z,0.0000
2023-04-18T00:36:42.260Z,0.0000
2023-04-18T00:37:42.753Z,0.0000
2023-04-18T00:38:43.298Z,0.0000
2023-04-18T00:39:43.814Z,0.0000
2023-04-18T00:40:44.198Z,0.0000
2023-04-18T00:41:44.807Z,0.0000
2023-04-18T00:42:45.378Z,0.0000
2023-04-18T00:43:45.794Z,0.0000
2023-04-18T00:44:46.828Z,0.0000
2023-04-18T00:45:47.215Z,0.0000
2023-04-18T00:46:48.415Z,0.0000
2023-04-18T00:47:49.289Z,0.0000
2023-04-18T00:48:49.996Z,0.0000
2023-04-18T00:49:50.881Z,0.0000
2023-04-18T00:50:51.549Z,0.0000
2023-04-18T00:51:52.029Z,0.0000
2023-04-18T00:52:52.636Z,0.0000
2023-04-18T00:53:53.106Z,0.0000
2023-04-18T00:54:54.227Z,0.0000
2023-04-18T00:55:54.856Z,0.0000
2023-04-18T00:56:55.330Z,0.0000
2023-04-18T00:57:55.883Z,0.0000
2023-04-18T00:58:56.453Z,0.0000
2023-04-18T00:59:56.843Z,0.0000
2023-04-18T01:00:57.435Z,0.0000
2023-04-18T01:01:58.110Z,0.0000
2023-04-18T01:02:58.362Z,0.0000
2023-04-18T01:03:58.449Z,0.0000
2023-04-18T01:04:59.164Z,0.0000
2023-04-18T01:05:59.850Z,0.0000
2023-04-18T01:07:00.416Z,0.0000
2023-04-18T01:08:00.987Z,0.0000
2023-04-18T01:09:01.727Z,0.0000
2023-04-18T01:10:02.471Z,0.0000
2023-04-18T01:11:02.850Z,0.0000
2023-04-18T01:12:03.424Z,0.0000
2023-04-18T01:13:03.849Z,0.0000
2023-04-18T01:14:04.354Z,0.0000
2023-04-18T01:15:04.885Z,0.0000
2023-04-18T01:16:05.503Z,0.0000
2023-04-18T01:17:06.685Z,0.0000
2023-04-18T01:18:07.452Z,0.0000
2023-04-18T01:19:07.907Z,0.0000
2023-04-18T01:20:08.566Z,0.0000
2023-04-18T01:21:09.306Z,0.0000
2023-04-18T01:22:09.901Z,0.0000
2023-04-18T01:23:10.461Z,0.0000
2023-04-18T01:24:11.154Z,0.0000
2023-04-18T01:25:11.537Z,0.0000
2023-04-18T01:26:12.217Z,0.0000
2023-04-18T01:27:12.798Z,0.0000
2023-04-18T01:28:13.393Z,0.0000
2023-04-18T01:29:13.762Z,0.0000
2023-04-18T01:30:14.823Z,0.0000
2023-04-18T01:31:15.498Z,0.0000
2023-04-18T01:32:16.102Z,0.0000
2023-04-18T01:33:17.039Z,0.0000
2023-04-18T01:34:17.785Z,0.0000
2023-04-18T01:35:18.297Z,0.0000
2023-04-18T01:36:18.853Z,0.0000
2023-04-18T01:37:19.263Z,0.0000
2023-04-18T01:38:19.751Z,0.0000
2023-04-18T01:39:20.452Z,0.0000
2023-04-18T01:40:20.876Z,0.0000
2023-04-18T01:41:21.477Z,0.0000
2023-04-18T01:42:22.411Z,0.0000
2023-04-18T01:43:22.849Z,0.0000
2023-04-18T01:44:23.448Z,0.0000
2023-04-18T01:45:23.894Z,0.0000
2023-04-18T01:46:24.678Z,0.0000
2023-04-18T01:47:25.704Z,0.0000
2023-04-18T01:48:26.235Z,0.0000
2023-04-18T01:49:26.869Z,0.0000
2023-04-18T01:50:27.439Z,0.0000
2023-04-18T01:51:27.864Z,0.0000
2023-04-18T01:52:28.612Z,0.0000
2023-04-18T01:53:28.941Z,0.0000
2023-04-18T01:54:29.963Z,0.0000
2023-04-18T01:55:30.510Z,0.0000
2023-04-18T01:56:30.941Z,0.0000
2023-04-18T01:57:31.684Z,0.0000
2023-04-18T01:58:32.328Z,0.0000
2023-04-18T01:59:32.645Z,0.0000
2023-04-18T02:00:33.259Z,0.0000
2023-04-18T02:01:33.913Z,0.0000
2023-04-18T02:02:35.033Z,0.0000
2023-04-18T02:03:35.583Z,0.0000
2023-04-18T02:04:35.452Z,0.0000
2023-04-18T02:05:36.002Z,0.0000
2023-04-18T02:06:36.559Z,0.0000
2023-04-18T02:07:37.117Z,0.0000
2023-04-18T02:08:37.766Z,0.0000
2023-04-18T02:09:38.195Z,0.0000
2023-04-18T02:10:38.698Z,0.0000
2023-04-18T02:11:39.333Z,0.0000
2023-04-18T02:12:39.748Z,0.0000
2023-04-18T02:13:40.315Z,0.0000
2023-04-18T02:14:40.862Z,0.0000
2023-04-18T02:15:41.204Z,0.0000
2023-04-18T02:16:42.132Z,0.0000
2023-04-18T02:17:42.829Z,0.0000
2023-04-18T02:18:43.539Z,0.0000
2023-04-18T02:19:44.177Z,0.0000
2023-04-18T02:20:44.785Z,0.0000
2023-04-18T02:21:45.335Z,0.0000
2023-04-18T02:22:45.904Z,0.0000
2023-04-18T02:23:46.409Z,0.0000
2023-04-18T02:24:47.230Z,0.0000
2023-04-18T02:25:47.730Z,0.0000
2023-04-18T02:26:48.484Z,0.0000
2023-04-18T02:27:49.214Z,0.0000
2023-04-18T02:28:49.989Z,0.0000
2023-04-18T02:29:50.637Z,0.0000
2023-04-18T02:30:51.590Z,0.0000
2023-04-18T02:31:52.278Z,0.0000
2023-04-18T02:32:53.465Z,0.0000
2023-04-18T02:33:53.957Z,0.0000
2023-04-18T02:34:54.756Z,0.0000
2023-04-18T02:35:55.358Z,0.0000
2023-04-18T02:36:55.815Z,0.0000
2023-04-18T02:37:56.433Z,0.0000
2023-04-18T02:38:56.981Z,0.0000
2023-04-18T02:39:57.377Z,0.0000
2023-04-18T02:40:58.040Z,0.0000
2023-04-18T02:41:58.415Z,0.0000
2023-04-18T02:42:58.990Z,0.0000
2023-04-18T02:43:59.633Z,0.0000
2023-04-18T02:45:00.117Z,0.0000
2023-04-18T02:46:00.873Z,0.0000
2023-04-18T02:47:01.689Z,0.0000
2023-04-18T02:48:02.679Z,0.0000
2023-04-18T02:49:03.556Z,0.0000
2023-04-18T02:50:04.155Z,0.0000
2023-04-18T02:51:04.679Z,0.0000
2023-04-18T02:52:05.301Z,0.0000
2023-04-18T02:53:05.736Z,0.0000
2023-04-18T02:54:06.288Z,0.0000
2023-04-18T02:55:06.897Z,0.0000
2023-04-18T02:56:07.414Z,0.0000
2023-04-18T02:57:08.134Z,0.0000
2023-04-18T02:58:08.744Z,0.0000
2023-04-18T02:59:09.283Z,0.0000
2023-04-18T03:00:09.883Z,0.0000
2023-04-18T03:01:10.381Z,0.0000
2023-04-18T03:02:11.336Z,0.0000
2023-04-18T03:03:11.368Z,0.0000
2023-04-18T03:04:12.325Z,0.0000
2023-04-18T03:05:12.705Z,0.0000
2023-04-18T03:06:13.388Z,0.0000
2023-04-18T03:07:13.766Z,0.0000
2023-04-18T03:08:14.560Z,0.0000
2023-04-18T03:09:14.939Z,0.0000
2023-04-18T03:10:15.542Z,0.0000
2023-04-18T03:11:16.087Z,0.0000
2023-04-18T03:12:16.522Z,0.0000
2023-04-18T03:13:17.108Z,0.0000
2023-04-18T03:14:17.736Z,0.0000
2023-04-18T03:15:18.122Z,0.0000
2023-04-18T03:16:18.986Z,0.0000
2023-04-18T03:17:19.744Z,0.0000
2023-04-18T03:18:20.321Z,0.0000
2023-04-18T03:19:21.059Z,0.0000
2023-04-18T03:20:21.547Z,0.0000
2023-04-18T03:21:22.144Z,0.0000
2023-04-18T03:22:22.813Z,0.0000
2023-04-18T03:23:23.314Z,0.0000
2023-04-18T03:24:23.819Z,0.0000
2023-04-18T03:25:24.183Z,0.0000
2023-04-18T03:26:24.710Z,0.0000
2023-04-18T03:27:25.258Z,0.0000
2023-04-18T03:28:25.776Z,0.0000
2023-04-18T03:29:26.409Z,0.0000
2023-04-18T03:30:27.074Z,0.0000
2023-04-18T03:31:27.767Z,0.0000
2023-04-18T03:32:28.658Z,0.0000
2023-04-18T03:33:29.309Z,0.0000
2023-04-18T03:34:29.751Z,0.0000
2023-04-18T03:35:30.430Z,0.0000
2023-04-18T03:36:30.987Z,0.0000
2023-04-18T03:37:31.523Z,0.0000
2023-04-18T03:38:32.107Z,0.0000
2023-04-18T03:39:32.545Z,0.0000
2023-04-18T03:40:33.141Z,0.0000
2023-04-18T03:41:33.682Z,0.0000
2023-04-18T03:42:34.336Z,0.0000
2023-04-18T03:43:34.991Z,0.0000
2023-04-18T03:44:36.245Z,0.0000
2023-04-18T03:45:36.825Z,0.0000
2023-04-18T03:46:38.085Z,0.0000
2023-04-18T03:47:38.997Z,0.0000
2023-04-18T03:48:40.396Z,0.0000
2023-04-18T03:50:40.259Z,0.0000
2023-04-18T03:51:40.971Z,0.0000
2023-04-18T03:52:41.371Z,0.0000
2023-04-18T03:53:41.734Z,0.0000
2023-04-18T03:54:42.886Z,0.0000
2023-04-18T03:55:43.294Z,0.0000
2023-04-18T03:56:43.978Z,0.0000
2023-04-18T03:57:44.478Z,0.0000
2023-04-18T03:58:44.906Z,0.0000
2023-04-18T03:59:47.321Z,0.0000
2023-04-18T04:00:45.772Z,0.0000
2023-04-18T04:01:46.290Z,0.0000
2023-04-18T04:02:46.812Z,0.0000
2023-04-18T04:03:47.443Z,0.0000
2023-04-18T04:04:47.505Z,0.0000
2023-04-18T04:05:48.245Z,0.0000
2023-04-18T04:06:48.945Z,0.0000
2023-04-18T04:07:49.589Z,0.0000
2023-04-18T04:08:50.145Z,0.0000
2023-04-18T04:09:50.761Z,0.0000
2023-04-18T04:10:51.184Z,0.0000
2023-04-18T04:11:51.674Z,0.0000
2023-04-18T04:12:52.282Z,0.0000
2023-04-18T04:13:52.720Z,0.0000
2023-04-18T04:14:53.930Z,0.0000
2023-04-18T04:15:54.487Z,0.0000
2023-04-18T04:16:55.307Z,0.0000
2023-04-18T04:17:56.187Z,0.0000
2023-04-18T04:18:56.949Z,0.0000
2023-04-18T04:19:57.359Z,0.0000
2023-04-18T04:20:57.939Z,0.0000
2023-04-18T04:21:58.346Z,0.0000
2023-04-18T04:22:58.948Z,0.0000
2023-04-18T04:23:59.588Z,0.0000
2023-04-18T04:25:00.304Z,0.0000
2023-04-18T04:26:00.912Z,0.0000
2023-04-18T04:27:01.557Z,0.0000
2023-04-18T04:28:02.532Z,0.0000
2023-04-18T04:29:03.201Z,0.0000
2023-04-18T04:30:03.931Z,0.0000
2023-04-18T04:31:05.025Z,0.0000
2023-04-18T04:32:05.159Z,0.0000
2023-04-18T04:33:06.129Z,0.0000
2023-04-18T04:36:07.374Z,0.0000
2023-04-18T04:37:08.144Z,0.0000
2023-04-18T04:38:08.718Z,0.0000
2023-04-18T04:39:09.454Z,0.0000
2023-04-18T04:40:10.669Z,0.0000
2023-04-18T04:41:11.593Z,0.0000
2023-04-18T04:42:12.804Z,0.0000
2023-04-18T04:43:13.888Z,0.0000
2023-04-18T04:44:14.851Z,0.0000
2023-04-18T04:45:15.429Z,0.0000
2023-04-18T04:46:16.210Z,0.0000
2023-04-18T04:47:16.801Z,0.0000
2023-04-18T04:48:17.034Z,0.0000
2023-04-18T04:49:17.935Z,0.0000
2023-04-18T04:50:18.869Z,0.3750
2023-04-18T04:51:19.674Z,0.0000
2023-04-18T04:52:20.373Z,0.0000
2023-04-18T04:53:21.000Z,0.0000
2023-04-18T04:54:21.519Z,0.0000
2023-04-18T04:55:21.985Z,3.5000
2023-04-18T04:56:22.932Z,5.6250
2023-04-18T04:57:23.615Z,5.6250
2023-04-18T04:58:24.155Z,4.3750
2023-04-18T04:59:24.792Z,0.0000
2023-04-18T05:00:25.606Z,0.0000
2023-04-18T05:01:26.423Z,0.0000
2023-04-18T05:02:26.857Z,0.0000
2023-04-18T05:03:28.747Z,5.6250
2023-04-18T05:04:29.097Z,5.6250
2023-04-18T05:05:30.202Z,5.6250
2023-04-18T05:06:30.846Z,5.6250
2023-04-18T05:07:31.836Z,5.6250
2023-04-18T05:08:32.683Z,5.6250
2023-04-18T05:09:33.267Z,5.6250
2023-04-18T05:10:33.901Z,10.1250
2023-04-18T05:11:34.585Z,11.2500
2023-04-18T05:12:35.184Z,11.2500
2023-04-18T05:13:36.160Z,11.2500
2023-04-18T05:14:36.553Z,11.2500
2023-04-18T05:15:37.463Z,11.2500
2023-04-18T05:16:37.709Z,11.2500
2023-04-18T05:17:38.745Z,11.2500
2023-04-18T05:18:39.478Z,11.2500
2023-04-18T05:19:40.340Z,11.2500
2023-04-18T05:20:41.013Z,11.2500
2023-04-18T05:21:41.731Z,11.2500
2023-04-18T05:22:43.033Z,11.2500
2023-04-18T05:23:42.859Z,11.2500
2023-04-18T05:24:43.056Z,11.2500
2023-04-18T05:25:43.713Z,11.2500
2023-04-18T05:26:44.697Z,11.2500
2023-04-18T05:27:45.946Z,11.2500
2023-04-18T05:28:46.802Z,11.2500
2023-04-18T05:29:47.579Z,12.5000
2023-04-18T05:30:48.912Z,16.8750
2023-04-18T05:31:49.906Z,16.8750
2023-04-18T05:32:50.312Z,17.1307
2023-04-18T05:33:50.334Z,22.5000
2023-04-18T05:34:51.460Z,27.4709
2023-04-18T05:35:53.496Z,24.7500
2023-04-18T05:36:53.668Z,22.5000
2023-04-18T05:37:54.476Z,22.5000
2023-04-18T05:38:55.371Z,22.5000
2023-04-18T05:39:55.938Z,22.5000
2023-04-18T05:40:56.290Z,22.5000
2023-04-18T05:41:56.724Z,22.5000
2023-04-18T05:42:57.911Z,25.2500
2023-04-18T05:44:05.261Z,28.1250
2023-04-18T05:45:02.438Z,26.8902
2023-04-18T05:48:04.054Z,22.5000
2023-04-18T05:49:04.813Z,31.6250
2023-04-18T05:50:05.567Z,30.7500
2023-04-18T05:51:06.487Z,33.7500
2023-04-18T05:52:07.678Z,33.7500
2023-04-18T05:53:08.531Z,42.0000
2023-04-18T05:54:09.151Z,45.0000
2023-04-18T05:55:09.147Z,40.5256
2023-04-18T05:56:09.647Z,39.3750
2023-04-18T05:57:10.696Z,39.3750
2023-04-18T05:58:11.356Z,41.0000
2023-04-18T05:59:11.957Z,45.8750
2023-04-18T06:00:12.666Z,52.0000
2023-04-18T06:01:13.889Z,59.1250
2023-04-18T06:02:14.722Z,61.3750
2023-04-18T06:03:16.047Z,56.2500
2023-04-18T06:04:16.809Z,56.2500
2023-04-18T06:05:17.253Z,60.9593
2023-04-18T06:06:17.934Z,61.8750
2023-04-18T06:07:18.386Z,61.8750
2023-04-18T06:08:19.212Z,61.7500
2023-04-18T06:09:19.852Z,55.8750
2023-04-18T06:10:20.556Z,48.8750
2023-04-18T06:11:21.403Z,45.0000
2023-04-18T06:12:22.324Z,45.0000
2023-04-18T06:13:22.993Z,45.0000
2023-04-18T06:14:23.828Z,49.8750
2023-04-18T06:15:25.050Z,62.7500
2023-04-18T06:16:25.974Z,76.7500
2023-04-18T06:17:25.972Z,79.3892
2023-04-18T06:18:26.915Z,80.2500
2023-04-18T06:19:27.100Z,73.2528
2023-04-18T06:20:28.323Z,67.8750
2023-04-18T06:21:28.897Z,75.5000
2023-04-18T06:22:29.982Z,90.2500
2023-04-18T06:23:30.609Z,87.8750
2023-04-18T06:24:31.357Z,78.3665
2023-04-18T06:25:31.005Z,71.0795
2023-04-18T06:26:31.502Z,63.7500
2023-04-18T06:27:34.535Z,56.4020
2023-04-18T06:28:35.388Z,59.2500
2023-04-18T06:29:36.855Z,69.8750
2023-04-18T06:30:36.220Z,84.6366
2023-04-18T06:31:37.082Z,95.1250
2023-04-18T06:32:37.932Z,91.0000
2023-04-18T06:33:38.618Z,88.1250
2023-04-18T06:34:39.866Z,95.6250
2023-04-18T06:35:40.505Z,93.7500
2023-04-18T06:36:41.153Z,79.6250
2023-04-18T06:37:41.389Z,69.0341
2023-04-18T06:38:42.077Z,76.6250
2023-04-18T06:39:42.772Z,87.6250
2023-04-18T06:40:43.518Z,94.7500
2023-04-18T06:41:44.265Z,99.8750
2023-04-18T06:42:44.756Z,97.9261
2023-04-18T06:44:01.572Z,90.0000
2023-04-18T06:44:46.870Z,95.2734
2023-04-18T06:45:47.602Z,87.0000
2023-04-18T06:46:47.677Z,75.6818
2023-04-18T06:47:48.725Z,73.1250
2023-04-18T06:48:50.434Z,81.1047
2023-04-18T06:49:49.849Z,88.7652
2023-04-18T06:50:50.594Z,96.1250
2023-04-18T06:51:51.220Z,96.0000
2023-04-18T06:52:51.798Z,86.8750
2023-04-18T06:53:52.578Z,88.6250
2023-04-18T06:54:53.379Z,90.0000
2023-04-18T06:55:54.132Z,93.6250
2023-04-18T06:56:55.303Z,95.6250
2023-04-18T06:57:56.516Z,100.8750
2023-04-18T06:58:57.321Z,102.1250
2023-04-18T06:59:58.553Z,113.2500
2023-04-18T07:00:59.191Z,111.3750
2023-04-18T07:02:00.129Z,99.6250
2023-04-18T07:03:00.733Z,91.1506
2023-04-18T07:04:00.928Z,94.4196
2023-04-18T07:05:01.336Z,99.8110
2023-04-18T07:06:01.887Z,110.3750
2023-04-18T07:07:02.691Z,129.3750
2023-04-18T07:08:03.351Z,130.3750
2023-04-18T07:09:04.107Z,129.3750
2023-04-18T07:10:04.679Z,139.8750
2023-04-18T07:11:04.699Z,153.4091
2023-04-18T07:12:05.200Z,161.1250
2023-04-18T07:13:05.751Z,166.1250
2023-04-18T07:14:06.656Z,181.4732
2023-04-18T07:15:07.717Z,192.6250
2023-04-18T07:16:08.377Z,196.8750
2023-04-18T07:17:09.054Z,203.7500
2023-04-18T07:18:10.036Z,208.2500
2023-04-18T07:19:10.939Z,219.0341
2023-04-18T07:20:12.987Z,236.3750
2023-04-18T07:21:12.436Z,237.6889
2023-04-18T07:22:13.100Z,213.7500
2023-04-18T07:23:13.597Z,214.7500
2023-04-18T07:24:14.509Z,226.5000
2023-04-18T07:25:15.385Z,234.0000
2023-04-18T07:26:15.619Z,240.8523
2023-04-18T07:27:16.353Z,231.7500
2023-04-18T07:28:17.208Z,228.3750
2023-04-18T07:29:17.675Z,214.0000
2023-04-18T07:30:18.470Z,198.6250
2023-04-18T07:31:19.331Z,196.8750
2023-04-18T07:32:20.080Z,196.8750
2023-04-18T07:33:20.895Z,197.0000
2023-04-18T07:34:21.497Z,212.3750
2023-04-18T07:35:22.119Z,226.8750
2023-04-18T07:36:22.889Z,240.1250
2023-04-18T07:37:23.549Z,240.9801
2023-04-18T07:38:24.191Z,226.7500
2023-04-18T07:39:24.818Z,213.6250
2023-04-18T07:40:25.305Z,202.1250
2023-04-18T07:41:26.032Z,195.2500
2023-04-18T07:42:26.551Z,189.2500
2023-04-18T07:43:26.689Z,182.0455
2023-04-18T07:44:26.864Z,173.0966
2023-04-18T07:45:27.257Z,169.7500
2023-04-18T07:46:27.606Z,177.3153
2023-04-18T07:47:32.242Z,187.5000
2023-04-18T07:48:31.432Z,203.5465
2023-04-18T07:49:32.530Z,232.2500
2023-04-18T07:50:33.251Z,252.3750
2023-04-18T07:51:33.673Z,269.2500
2023-04-18T07:52:34.628Z,281.5000
2023-04-18T07:53:35.275Z,280.8750
2023-04-18T07:54:35.728Z,289.7500
2023-04-18T07:55:36.322Z,306.6250
2023-04-18T07:56:36.785Z,326.8750
2023-04-18T07:57:37.478Z,343.0000
2023-04-18T07:58:38.148Z,360.3750
2023-04-18T07:59:39.316Z,379.6250
2023-04-18T08:00:39.377Z,392.2159
2023-04-18T08:01:39.996Z,403.0000
2023-04-18T08:02:41.328Z,409.7500
2023-04-18T08:03:41.267Z,413.7645
2023-04-18T08:04:41.884Z,393.6222
2023-04-18T08:05:43.021Z,377.8977
2023-04-18T08:06:43.849Z,381.1250
2023-04-18T08:07:44.798Z,397.8750
2023-04-18T08:08:45.609Z,409.2500
2023-04-18T08:09:46.771Z,427.7500
2023-04-18T08:10:47.185Z,444.5000
2023-04-18T08:11:47.874Z,433.7500
2023-04-18T08:12:48.606Z,431.7500
2023-04-18T08:13:49.318Z,423.1534
2023-04-18T08:14:50.235Z,428.7500
2023-04-18T08:15:50.966Z,418.1250
2023-04-18T08:16:51.804Z,440.1890
2023-04-18T08:17:52.388Z,450.3750
2023-04-18T08:18:53.093Z,438.2500
2023-04-18T08:19:53.703Z,405.5000
2023-04-18T08:20:54.198Z,473.5000
2023-04-18T08:21:54.887Z,470.3750
2023-04-18T08:23:06.135Z,421.3125
2023-04-18T08:24:01.983Z,424.6875
2023-04-18T08:25:05.547Z,351.2500
2023-04-18T08:26:03.792Z,312.6454
2023-04-18T08:27:04.186Z,275.6250
2023-04-18T08:28:04.882Z,327.7500
2023-04-18T08:29:05.046Z,318.8839
2023-04-18T08:30:05.868Z,302.6250
2023-04-18T08:31:06.580Z,268.2500
2023-04-18T08:32:07.484Z,238.2500
2023-04-18T08:33:08.635Z,245.7500
2023-04-18T08:34:09.271Z,280.8750
2023-04-18T08:35:09.938Z,318.3750
2023-04-18T08:36:10.559Z,347.0000
2023-04-18T08:37:11.077Z,399.1250
2023-04-18T08:38:11.524Z,418.1250
2023-04-18T08:39:12.212Z,419.0000
2023-04-18T08:40:13.283Z,428.1250
2023-04-18T08:41:13.773Z,454.3750
2023-04-18T08:42:14.485Z,450.5000
2023-04-18T08:43:14.994Z,427.8750
2023-04-18T08:44:15.741Z,419.6250
2023-04-18T08:45:16.723Z,418.7500
2023-04-18T08:46:16.973Z,424.0483
2023-04-18T08:47:18.050Z,433.5000
2023-04-18T08:48:19.102Z,426.8750
2023-04-18T08:49:20.173Z,422.3983
2023-04-18T08:50:20.375Z,418.5511
2023-04-18T08:51:20.450Z,414.5881
2023-04-18T08:52:21.023Z,409.1250
2023-04-18T08:53:21.936Z,389.1250
2023-04-18T08:54:22.483Z,360.2500
2023-04-18T08:55:23.357Z,323.7500
2023-04-18T08:56:23.959Z,300.8750
2023-04-18T08:57:24.502Z,290.8750
2023-04-18T08:58:25.409Z,276.8750
2023-04-18T08:59:26.501Z,256.0000
2023-04-18T09:00:27.587Z,238.9286
2023-04-18T09:01:28.382Z,246.7500
2023-04-18T09:02:29.345Z,258.6250
2023-04-18T09:03:29.938Z,263.7358
2023-04-18T09:04:30.826Z,252.7500
2023-04-18T09:05:32.110Z,250.0000
2023-04-18T09:06:32.238Z,259.0116
2023-04-18T09:07:32.953Z,279.0000
2023-04-18T09:08:34.221Z,306.6250
2023-04-18T09:09:35.008Z,354.7500
2023-04-18T09:10:36.787Z,397.5000
2023-04-18T09:11:36.548Z,413.4375
2023-04-18T09:12:37.255Z,414.5000
2023-04-18T09:13:38.439Z,405.8750
2023-04-18T09:14:38.916Z,413.2500
2023-04-18T09:15:39.631Z,416.5000
2023-04-18T09:16:40.783Z,423.1250
2023-04-18T09:17:41.597Z,421.6250
2023-04-18T09:18:42.348Z,416.3750
2023-04-18T09:19:42.752Z,422.8977
2023-04-18T09:20:43.355Z,414.1250
2023-04-18T09:21:44.008Z,419.5000
2023-04-18T09:22:44.844Z,408.5796
2023-04-18T09:23:45.546Z,417.7500
2023-04-18T09:24:46.796Z,424.8750
2023-04-18T09:25:47.797Z,448.2589
2023-04-18T09:26:48.547Z,497.0000
2023-04-18T09:27:48.912Z,475.8750
2023-04-18T09:28:51.219Z,441.3750
2023-04-18T09:29:50.129Z,214.2857
2023-04-18T09:30:50.747Z,48.7500
2023-04-18T09:31:51.693Z,47.2500
2023-04-18T09:32:52.227Z,57.3750
2023-04-18T09:33:53.221Z,244.3750
2023-04-18T09:34:53.908Z,338.0000
2023-04-18T09:35:54.850Z,298.1250
2023-04-18T09:36:55.805Z,253.7500
2023-04-18T09:37:56.857Z,230.1250
2023-04-18T09:38:57.529Z,233.5000
2023-04-18T09:39:58.302Z,296.3750
2023-04-18T09:40:59.080Z,360.6250
2023-04-18T09:41:59.414Z,414.9419
2023-04-18T09:43:00.180Z,446.8750
2023-04-18T09:44:00.682Z,467.8750
2023-04-18T09:45:01.373Z,442.4062
2023-04-18T09:46:02.424Z,437.3750
2023-04-18T09:47:03.195Z,422.7699
2023-04-18T09:48:03.916Z,394.8750
2023-04-18T09:49:04.614Z,382.7500
2023-04-18T09:50:05.922Z,371.3750
2023-04-18T09:51:06.446Z,361.2500
2023-04-18T09:52:07.079Z,415.3750
2023-04-18T09:53:07.477Z,452.2500
2023-04-18T09:54:08.462Z,481.1932
2023-04-18T09:55:08.718Z,501.4099
2023-04-18T09:56:09.408Z,520.6250
2023-04-18T09:57:10.353Z,508.1250
2023-04-18T09:58:10.899Z,487.6250
2023-04-18T09:59:11.590Z,501.5000
2023-04-18T10:00:12.406Z,549.2411
2023-04-18T10:01:12.494Z,618.2143
2023-04-18T10:02:13.761Z,597.6250
2023-04-18T10:03:14.846Z,550.5000
2023-04-18T10:04:15.725Z,565.5682
2023-04-18T10:05:17.244Z,552.0170
2023-04-18T10:06:16.407Z,534.6367
2023-04-18T10:07:17.025Z,539.6250
2023-04-18T10:08:17.592Z,574.5000
2023-04-18T10:09:18.014Z,616.7500
2023-04-18T10:10:18.644Z,627.8750
2023-04-18T10:11:20.320Z,627.5145
2023-04-18T10:12:19.890Z,608.7784
2023-04-18T10:13:20.641Z,563.7500
2023-04-18T10:14:21.836Z,561.6250
2023-04-18T10:15:22.476Z,578.7500
2023-04-18T10:16:23.459Z,523.7500
2023-04-18T10:17:23.481Z,497.5446
2023-04-18T10:18:24.609Z,507.9808
2023-04-18T10:19:24.534Z,496.6619
2023-04-18T10:20:25.101Z,508.2500
2023-04-18T10:21:25.639Z,539.7500
2023-04-18T10:22:26.218Z,572.2500
2023-04-18T10:23:28.095Z,637.3750
2023-04-18T10:24:27.512Z,685.2273
2023-04-18T10:25:28.045Z,716.0000
2023-04-18T10:26:28.693Z,673.6250
2023-04-18T10:27:29.346Z,561.7500
2023-04-18T10:28:29.840Z,478.5000
2023-04-18T10:29:30.805Z,436.2500
2023-04-18T10:30:31.218Z,379.8750
2023-04-18T10:31:32.250Z,358.1250
2023-04-18T10:32:32.902Z,366.0000
2023-04-18T10:33:33.669Z,398.4375
2023-04-18T10:34:33.463Z,384.3314
2023-04-18T10:35:33.486Z,429.0341
2023-04-18T10:36:34.972Z,530.3750
2023-04-18T10:38:34.758Z,447.6250
2023-04-18T10:39:35.326Z,526.2500
2023-04-18T10:40:36.093Z,523.7500
2023-04-18T10:41:36.048Z,438.2386
2023-04-18T10:43:00.314Z,371.5312
2023-04-18T10:44:00.553Z,424.8153
2023-04-18T10:45:01.093Z,507.0000
2023-04-18T10:46:01.754Z,581.3750
2023-04-18T10:47:02.680Z,612.3438
2023-04-18T10:48:03.062Z,569.4034
2023-04-18T10:49:03.219Z,510.9801
2023-04-18T10:50:08.431Z,493.8494
2023-04-18T10:51:09.113Z,458.5000
2023-04-18T10:52:11.766Z,525.1250
2023-04-18T10:53:10.501Z,559.5536
2023-04-18T10:54:11.030Z,550.6250
2023-04-18T10:55:12.266Z,553.7500
2023-04-18T10:56:12.938Z,495.7500
2023-04-18T10:57:13.500Z,437.0000
2023-04-18T10:58:14.177Z,453.7500
2023-04-18T10:59:14.720Z,524.7500
2023-04-18T11:00:15.336Z,648.2500
2023-04-18T11:01:16.508Z,672.5000
2023-04-18T11:02:17.603Z,693.3750
2023-04-18T11:03:17.709Z,681.2791
2023-04-18T11:04:18.092Z,639.8438
2023-04-18T11:05:17.953Z,538.0378
2023-04-18T11:06:18.691Z,482.4716
2023-04-18T11:07:19.181Z,440.2841
2023-04-18T11:08:19.848Z,443.3750
2023-04-18T11:09:20.429Z,529.0000
2023-04-18T11:10:21.025Z,539.1250
2023-04-18T11:11:22.244Z,475.7500
2023-04-18T11:12:22.776Z,406.5000
2023-04-18T11:13:22.822Z,385.9299
2023-04-18T11:14:23.601Z,358.0000
2023-04-18T11:15:24.430Z,339.3750
2023-04-18T11:16:25.177Z,382.1250
2023-04-18T11:17:26.241Z,489.8750
2023-04-18T11:18:26.283Z,594.7159
2023-04-18T11:19:27.093Z,631.2500
2023-04-18T11:20:28.255Z,615.8750
2023-04-18T11:21:30.463Z,703.2500
2023-04-18T11:22:29.087Z,686.3808
2023-04-18T11:23:30.062Z,609.2500
2023-04-18T11:24:30.015Z,521.3352
2023-04-18T11:25:30.710Z,514.2500
2023-04-18T11:26:31.384Z,519.6250
2023-04-18T11:27:31.585Z,485.0581
2023-04-18T11:28:32.468Z,460.7500
2023-04-18T11:29:33.174Z,433.6250
2023-04-18T11:30:33.957Z,459.7500
2023-04-18T11:31:34.962Z,441.5000
2023-04-18T11:32:35.011Z,459.2046
2023-04-18T11:33:35.795Z,508.0000
2023-04-18T11:34:36.541Z,538.6250
2023-04-18T11:35:37.296Z,513.7500
2023-04-18T11:36:37.735Z,554.3750
2023-04-18T11:37:38.487Z,680.2500
2023-04-18T11:38:39.288Z,701.3750
2023-04-18T11:39:39.850Z,643.8750
2023-04-18T11:40:40.650Z,531.0000
2023-04-18T11:41:41.057Z,493.0000
2023-04-18T11:42:41.810Z,994.7500
2023-04-18T11:43:42.530Z,1670.7500
2023-04-18T11:44:43.329Z,782.6250
2023-04-18T11:45:43.967Z,687.1250
2023-04-18T11:46:45.035Z,797.5000
2023-04-18T11:47:45.606Z,784.1250
2023-04-18T11:48:46.248Z,1297.2500
2023-04-18T11:49:47.362Z,1727.1250
2023-04-18T11:50:48.629Z,1034.5000
2023-04-18T11:51:49.880Z,826.7500
2023-04-18T11:52:51.139Z,866.3750
2023-04-18T11:53:52.225Z,891.3750
2023-04-18T11:54:52.823Z,994.6250
2023-04-18T11:55:53.394Z,1031.1250
2023-04-18T11:56:54.297Z,1423.7500
2023-04-18T11:57:55.005Z,789.1250
2023-04-18T11:58:56.171Z,1706.3750
2023-04-18T11:59:57.043Z,1126.5000
2023-04-18T12:00:57.256Z,632.3323
2023-04-18T12:01:58.904Z,635.6250
2023-04-18T12:02:58.426Z,634.4408
2023-04-18T12:05:59.406Z,684.0549
2023-04-18T12:06:59.531Z,761.7297
2023-04-18T12:08:00.502Z,968.1250
2023-04-18T12:09:00.940Z,874.5536
2023-04-18T12:10:01.838Z,1078.5000
2023-04-18T12:11:02.902Z,1702.2500
2023-04-18T12:12:03.693Z,658.3750
2023-04-18T12:13:04.633Z,587.0000
2023-04-18T12:14:05.882Z,691.7471
2023-04-18T12:15:06.410Z,760.7812
2023-04-18T12:16:06.210Z,747.1023
2023-04-18T12:17:06.987Z,656.6250
2023-04-18T12:18:07.100Z,636.3920
2023-04-18T12:19:07.902Z,628.3750
2023-04-18T12:20:09.051Z,598.6790
2023-04-18T12:21:09.542Z,632.5568
2023-04-18T12:22:09.692Z,750.4261